Time;durP1;ratioP1;P1;durP2;ratioP2;P2;SDS_P1;SDS_P2;PMS_P1;PMS_P2;Temp;Humidity;BMP_temperature;BMP_pressure;BME280_temperature;BME280_humidity;BME280_pressure;Samples;Min_cycle;Max_cycle;Signal;HPM_P1;HPM_P2
2020/12/11 00:02:35;;;;;;;27.58;14.55;;;;;;;1.59;84.72;99353.53;10462453;28;20056;-68
2020/12/11 00:07:38;;;;;;;27.10;15.63;;;;;;;1.38;86.79;99337.94;10456194;28;20123;-68
2020/12/11 00:12:42;;;;;;;28.55;16.00;;;;;;;1.26;86.75;99326.34;10456626;28;20052;-68
2020/12/11 00:17:43;;;;;;;27.38;15.77;;;;;;;1.15;86.92;99312.97;10456072;28;20496;-68
2020/12/11 00:22:47;;;;;;;27.85;15.02;;;;;;;0.92;89.18;99292.25;10456728;28;20053;-68
2020/12/11 00:27:51;;;;;;;29.40;15.85;;;;;;;0.70;89.43;99294.72;10464121;28;20053;-68
2020/12/11 00:32:52;;;;;;;23.88;13.20;;;;;;;0.58;91.14;99302.81;10446571;28;20057;-68
2020/12/11 00:37:57;;;;;;;19.17;11.27;;;;;;;0.47;90.72;99282.56;10498143;28;20048;-68
2020/12/11 00:43:02;;;;;;;23.88;13.48;;;;;;;0.24;91.18;99254.13;10496488;28;20083;-67
2020/12/11 00:48:06;;;;;;;24.35;14.10;;;;;;;0.24;93.05;99261.84;10497036;28;20074;-68
2020/12/11 00:53:10;;;;;;;27.40;14.93;;;;;;;0.22;92.94;99261.03;10496345;28;20056;-68
2020/12/11 00:58:11;;;;;;;26.63;14.13;;;;;;;0.21;93.08;99264.50;10462390;28;20045;-68
2020/12/11 01:03:12;;;;;;;21.02;12.07;;;;;;;0.18;92.99;99257.72;10453078;28;20053;-68
2020/12/11 01:08:19;;;;;;;20.08;12.07;;;;;;;0.10;92.22;99248.56;10454072;28;20049;-68
2020/12/11 01:13:21;;;;;;;21.05;11.48;;;;;;;-0.04;92.96;99234.38;10454146;28;20394;-67
2020/12/11 01:18:22;;;;;;;19.42;11.43;;;;;;;-0.17;93.29;99243.38;10453646;28;20128;-67
2020/12/11 01:23:27;;;;;;;21.63;10.90;;;;;;;-0.26;93.37;99243.63;10453840;28;20053;-67
2020/12/11 01:28:28;;;;;;;17.45;10.38;;;;;;;-0.30;92.93;99238.59;10446521;28;20045;-67
2020/12/11 01:33:31;;;;;;;18.67;10.70;;;;;;;-0.31;93.78;99229.22;10450867;28;20111;-67
2020/12/11 01:38:32;;;;;;;21.63;11.02;;;;;;;-0.33;93.06;99220.72;10452755;28;20048;-68
2020/12/11 01:43:34;;;;;;;22.33;11.57;;;;;;;-0.35;93.17;99210.47;10452472;28;20136;-67
2020/12/11 01:48:35;;;;;;;23.35;12.10;;;;;;;-0.36;93.25;99205.38;10453166;28;20049;-67
2020/12/11 01:53:37;;;;;;;21.27;11.95;;;;;;;-0.37;93.73;99201.97;10451146;28;20048;-68
2020/12/11 01:58:43;;;;;;;20.42;11.57;;;;;;;-0.47;95.19;99188.56;10451809;28;20049;-67
2020/12/11 02:03:44;;;;;;;18.67;10.80;;;;;;;-0.45;95.43;99191.06;10451220;28;20056;-67
2020/12/11 02:08:47;;;;;;;17.80;11.07;;;;;;;-0.42;94.82;99188.41;10451893;28;20049;-67
2020/12/11 02:13:48;;;;;;;22.05;11.48;;;;;;;-0.40;94.66;99171.19;10452022;28;20048;-67
2020/12/11 02:18:50;;;;;;;21.88;11.68;;;;;;;-0.37;93.87;99155.69;10451599;28;20048;-68
2020/12/11 02:23:51;;;;;;;21.33;11.18;;;;;;;-0.39;94.28;99148.91;10451557;28;20052;-67
2020/12/11 02:28:55;;;;;;;18.60;10.60;;;;;;;-0.46;95.78;99143.94;10436855;28;20048;-67
2020/12/11 02:33:58;;;;;;;19.35;11.18;;;;;;;-0.47;94.60;99144.00;10450505;28;20044;-68
2020/12/11 02:39:02;;;;;;;19.42;10.68;;;;;;;-0.56;95.54;99146.88;10451933;28;20049;-68
2020/12/11 02:44:03;;;;;;;20.10;10.93;;;;;;;-0.64;95.60;99153.94;10451910;28;20049;-68
2020/12/11 02:49:07;;;;;;;18.40;10.90;;;;;;;-0.70;96.02;99148.97;10433534;28;20056;-67
2020/12/11 02:54:11;;;;;;;17.90;10.67;;;;;;;-0.75;95.86;99141.41;10448161;28;20053;-67
2020/12/11 02:59:15;;;;;;;21.08;11.35;;;;;;;-0.79;95.70;99131.25;10450140;28;20049;-68
2020/12/11 03:04:17;;;;;;;20.55;11.00;;;;;;;-0.82;96.39;99116.78;10449117;28;20404;-68
2020/12/11 03:09:18;;;;;;;19.63;11.32;;;;;;;-0.81;95.94;99099.66;10450425;28;20432;-67
2020/12/11 03:14:19;;;;;;;19.17;9.95;;;;;;;-0.89;95.08;99081.88;10450265;28;20064;-68
2020/12/11 03:19:20;;;;;;;19.92;10.55;;;;;;;-0.97;96.38;99074.44;10450171;28;20045;-68
2020/12/11 03:24:22;;;;;;;21.50;11.75;;;;;;;-1.02;96.78;99065.16;10450071;28;20137;-68
2020/12/11 03:29:25;;;;;;;18.42;10.75;;;;;;;-1.04;97.12;99047.22;10450534;28;20049;-67
2020/12/11 03:34:26;;;;;;;21.70;11.60;;;;;;;-1.04;96.14;99046.38;10450231;28;20516;-68
2020/12/11 03:39:30;;;;;;;21.77;11.57;;;;;;;-1.03;96.54;99037.81;10450101;28;20045;-68
2020/12/11 03:44:32;;;;;;;19.30;10.73;;;;;;;-1.09;96.76;99023.41;10449879;28;20401;-68
2020/12/11 03:49:38;;;;;;;21.30;10.75;;;;;;;-1.04;97.20;99026.69;10449798;28;20080;-68
2020/12/11 03:54:50;;;;;;;19.10;10.32;;;;;;;-1.00;97.06;99023.13;10449833;28;20496;-68
2020/12/11 03:59:51;;;;;;;18.73;9.95;;;;;;;-1.02;95.88;99013.81;10451830;28;20045;-68
2020/12/11 04:04:53;;;;;;;16.52;9.90;;;;;;;-1.12;96.86;99007.28;10454793;28;20072;-67
2020/12/11 04:09:57;;;;;;;17.90;9.55;;;;;;;-1.15;96.83;99004.78;10456471;28;20045;-67
2020/12/11 04:14:58;;;;;;;18.60;10.13;;;;;;;-1.26;96.52;98994.81;10456717;28;20060;-68
2020/12/11 04:20:05;;;;;;;19.13;10.48;;;;;;;-1.31;97.41;99004.38;10456119;28;20053;-68
2020/12/11 04:25:06;;;;;;;20.73;10.68;;;;;;;-1.37;97.96;98986.59;10455973;28;20667;-67
2020/12/11 04:30:08;;;;;;;19.92;10.10;;;;;;;-1.42;98.31;98975.63;10454353;28;20409;-68
2020/12/11 04:35:09;;;;;;;23.33;11.45;;;;;;;-1.49;98.04;98972.41;10457171;28;20060;-68
2020/12/11 04:40:13;;;;;;;20.67;11.32;;;;;;;-1.53;99.13;98985.38;10455453;28;20107;-67
2020/12/11 04:45:14;;;;;;;18.63;10.43;;;;;;;-1.62;98.57;98980.47;10454985;28;20049;-67
2020/12/11 04:50:19;;;;;;;18.73;10.55;;;;;;;-1.64;98.22;98959.19;10455286;28;20421;-68
2020/12/11 04:55:21;;;;;;;19.58;10.73;;;;;;;-1.74;98.57;98948.34;10454639;28;20568;-68
2020/12/11 05:00:24;;;;;;;21.23;11.38;;;;;;;-1.78;98.91;98939.88;10453319;28;20540;-68
2020/12/11 05:05:26;;;;;;;23.55;13.10;;;;;;;-1.76;99.04;98938.13;10454092;28;20053;-68
2020/12/11 05:10:40;;;;;;;20.73;11.82;;;;;;;-1.84;99.03;98924.69;10453468;28;20048;-68
2020/12/11 05:15:41;;;;;;;21.52;11.73;;;;;;;-1.85;99.23;98905.03;10456728;28;20060;-67
2020/12/11 05:20:42;;;;;;;22.23;11.98;;;;;;;-1.90;99.60;98909.47;10454511;28;20045;-68
2020/12/11 05:25:43;;;;;;;24.30;12.57;;;;;;;-1.88;99.56;98912.81;10453754;28;20049;-68
2020/12/11 05:30:50;;;;;;;27.42;12.90;;;;;;;-1.87;99.70;98911.94;10452908;28;20458;-68
2020/12/11 05:36:08;;;;;;;25.25;13.05;;;;;;;-1.81;100.00;98910.91;10456595;28;20048;-68
2020/12/11 05:41:30;;;;;;;26.20;12.35;;;;;;;-1.82;98.85;98906.66;10452687;28;20578;-69
2020/12/11 05:46:34;;;;;;;26.10;13.07;;;;;;;-1.82;99.23;98883.59;10452678;28;20586;-68
2020/12/11 05:51:38;;;;;;;25.98;12.25;;;;;;;-1.80;99.59;98869.84;10452543;28;20131;-68
2020/12/11 05:56:46;;;;;;;22.80;11.52;;;;;;;-1.76;98.89;98875.72;10452223;28;20063;-68
2020/12/11 06:01:55;;;;;;;23.75;12.70;;;;;;;-1.66;98.75;98866.03;10450690;28;20057;-68
2020/12/11 06:06:59;;;;;;;24.88;12.50;;;;;;;-1.53;98.54;98847.69;10451680;28;20051;-68
2020/12/11 06:12:05;;;;;;;22.95;12.52;;;;;;;-1.43;98.33;98832.84;10433595;28;20056;-69
2020/12/11 06:17:10;;;;;;;20.17;11.45;;;;;;;-1.33;98.11;98829.09;10451926;28;20053;-68
2020/12/11 06:22:15;;;;;;;21.90;12.50;;;;;;;-1.28;98.02;98832.38;10450999;28;20408;-68
2020/12/11 06:27:29;;;;;;;22.88;13.57;;;;;;;-1.18;97.60;98832.91;10451652;28;20473;-68
2020/12/11 06:32:32;;;;;;;22.75;11.90;;;;;;;-1.08;98.07;98819.72;10449753;28;20057;-68
2020/12/11 06:37:38;;;;;;;20.02;11.10;;;;;;;-1.01;98.19;98820.34;10451403;28;20625;-68
2020/12/11 06:42:42;;;;;;;22.23;11.45;;;;;;;-0.93;97.72;98815.81;10453415;28;20063;-68
2020/12/11 06:47:53;;;;;;;23.15;11.98;;;;;;;-0.96;98.28;98810.75;10452631;28;20053;-69
2020/12/11 06:52:55;;;;;;;26.05;12.85;;;;;;;-0.87;98.02;98819.03;10450400;28;20405;-69
2020/12/11 06:57:59;;;;;;;27.63;15.50;;;;;;;-0.92;98.36;98802.09;10450689;28;20084;-68
2020/12/11 07:03:17;;;;;;;25.98;15.20;;;;;;;-0.84;97.83;98802.66;10446608;28;20492;-69
2020/12/11 07:08:18;;;;;;;;;;;;;;;-0.77;97.74;98806.72;10475641;28;20126;-68
2020/12/11 07:13:19;;;;;;;28.17;14.73;;;;;;;-0.77;98.67;98799.00;10494184;28;19927;-68
2020/12/11 07:18:20;;;;;;;22.90;13.50;;;;;;;-0.72;98.64;98809.13;10496593;28;20090;-69
2020/12/11 07:23:22;;;;;;;82.95;37.85;;;;;;;-0.73;97.78;98799.72;10443498;28;20501;-68
2020/12/11 07:28:24;;;;;;;27.42;14.98;;;;;;;-0.58;97.62;98802.59;10460386;28;20041;-68
2020/12/11 07:33:32;;;;;;;24.70;13.82;;;;;;;-0.65;98.45;98801.13;10452362;28;20048;-68
2020/12/11 07:38:33;;;;;;;22.90;12.02;;;;;;;-0.60;97.37;98806.09;10459668;28;20099;-68
2020/12/11 07:43:34;;;;;;;20.70;11.35;;;;;;;-0.54;98.36;98805.91;10460027;28;20099;-68
2020/12/11 07:48:47;;;;;;;23.38;12.95;;;;;;;-0.46;96.55;98797.00;10458638;28;20045;-68
2020/12/11 07:53:53;;;;;;;21.23;11.82;;;;;;;-0.44;96.69;98789.25;10460864;28;20049;-68
2020/12/11 07:59:08;;;;;;;23.13;12.75;;;;;;;-0.38;95.90;98780.50;10465608;28;20115;-68
2020/12/11 08:04:09;;;;;;;26.00;12.80;;;;;;;-0.24;95.10;98766.25;10466233;28;20041;-68
2020/12/11 08:09:11;;;;;;;25.27;14.35;;;;;;;-0.14;95.06;98754.72;10462010;28;20466;-68
2020/12/11 08:14:12;;;;;;;28.67;16.05;;;;;;;-0.21;95.46;98758.44;10464268;28;20056;-68
2020/12/11 08:19:13;;;;;;;25.23;14.57;;;;;;;-0.05;94.19;98749.22;10455740;28;20484;-67
2020/12/11 08:24:28;;;;;;;25.05;12.73;;;;;;;-0.11;93.78;98752.06;10454814;28;20103;-68
2020/12/11 08:29:29;;;;;;;23.75;12.95;;;;;;;-0.07;94.35;98750.19;10461216;28;20049;-68
2020/12/11 08:34:30;;;;;;;24.08;13.13;;;;;;;0.00;92.34;98743.94;10454621;28;20084;-67
2020/12/11 08:39:31;;;;;;;25.55;14.10;;;;;;;0.09;93.91;98741.00;10454885;28;20463;-67
2020/12/11 08:49:46;;;;;;;29.13;16.77;;;;;;;0.29;92.68;98738.50;10453856;28;20049;-68
2020/12/11 08:54:50;;;;;;;27.88;16.02;;;;;;;0.48;93.30;98743.75;10488375;28;20091;-68
2020/12/11 08:59:51;;;;;;;24.45;13.60;;;;;;;0.59;93.43;98736.44;10488818;28;20055;-68
2020/12/11 09:04:53;;;;;;;24.65;13.23;;;;;;;0.59;92.33;98746.72;10474243;28;573141;-69
2020/12/11 09:10:09;;;;;;;25.88;13.65;;;;;;;0.67;93.32;98744.66;10499424;28;20051;-68
2020/12/11 09:15:10;;;;;;;24.67;14.40;;;;;;;0.67;91.07;98748.97;10497008;28;20098;-67
2020/12/11 09:20:12;;;;;;;28.88;17.02;;;;;;;0.66;91.89;98730.09;10480963;28;20041;-67
2020/12/11 09:25:13;;;;;;;32.00;18.42;;;;;;;0.82;91.13;98723.44;10463036;28;20071;-68
2020/12/11 09:30:33;;;;;;;32.00;18.50;;;;;;;0.83;91.81;98724.28;10463433;28;20091;-67
2020/12/11 09:35:34;;;;;;;29.13;16.83;;;;;;;0.92;92.12;98734.19;10455321;28;20049;-69
2020/12/11 09:56:04;;;;;;;36.22;18.80;;;;;;;1.06;89.84;98705.28;10457314;28;20068;-69
2020/12/11 10:01:07;;;;;;;34.83;18.05;;;;;;;1.11;89.63;98693.03;10483352;28;20074;-68
2020/12/11 10:06:09;;;;;;;32.70;17.90;;;;;;;1.09;88.22;98684.53;10494776;28;20520;-67
2020/12/11 10:11:09;;;;;;;30.52;15.88;;;;;;;1.13;89.10;98670.59;10493692;28;20454;-69
2020/12/11 10:16:15;;;;;;;31.73;16.20;;;;;;;1.21;88.52;98671.13;10493932;28;20063;-68
2020/12/11 10:21:19;;;;;;;28.20;15.43;;;;;;;1.30;90.14;98683.59;10495173;28;20162;-68
2020/12/11 10:26:20;;;;;;;27.23;14.80;;;;;;;1.24;89.43;98668.41;10493045;28;20045;-69
2020/12/11 10:31:21;;;;;;;27.42;14.90;;;;;;;1.14;91.31;98651.69;10492377;28;20048;-69
2020/12/11 10:36:32;;;;;;;29.23;15.82;;;;;;;1.29;89.26;98620.91;10492903;28;20129;-68
2020/12/11 10:41:33;;;;;;;28.27;15.52;;;;;;;1.55;88.59;98595.69;10494074;28;20450;-68
2020/12/11 10:46:34;;;;;;;32.10;16.60;;;;;;;1.57;90.35;98584.41;10494801;28;20056;-69
2020/12/11 10:51:35;;;;;;;31.60;15.60;;;;;;;1.56;89.86;98595.63;10496258;28;20051;-67
2020/12/11 10:56:36;;;;;;;30.75;15.77;;;;;;;1.74;89.18;98591.31;10494447;28;20121;-67
2020/12/11 11:01:38;;;;;;;28.77;15.63;;;;;;;2.08;88.90;98586.19;10493880;28;20058;-68
2020/12/11 11:06:44;;;;;;;27.05;14.80;;;;;;;2.08;90.31;98575.88;10491464;28;20060;-69
2020/12/11 11:11:55;;;;;;;26.67;14.85;;;;;;;2.11;87.44;98560.25;10499785;28;20462;-67
2020/12/11 11:27:50;;;;;;;27.75;15.00;;;;;;;2.53;86.18;98504.78;10466205;28;20078;-68
2020/12/11 11:32:53;;;;;;;26.50;13.80;;;;;;;2.55;84.15;98508.09;10482980;28;20052;-67
2020/12/11 11:37:54;;;;;;;27.23;14.88;;;;;;;2.42;84.54;98489.00;10499880;28;20667;-68
2020/12/11 11:42:55;;;;;;;28.90;15.90;;;;;;;2.41;85.89;98495.94;10501917;28;20068;-67
2020/12/11 11:47:57;;;;;;;29.00;15.40;;;;;;;2.47;86.17;98490.44;10500870;28;20054;-67
2020/12/11 11:53:03;;;;;;;30.05;15.32;;;;;;;2.56;86.28;98500.28;10502222;28;20044;-68
2020/12/11 11:58:04;;;;;;;28.40;15.33;;;;;;;2.64;84.01;98493.91;10501269;28;20056;-68
2020/12/11 12:03:05;;;;;;;28.55;15.05;;;;;;;2.59;85.13;98487.22;10480505;28;20057;-68
2020/12/11 12:08:07;;;;;;;28.85;14.75;;;;;;;2.68;84.74;98477.31;10496144;28;20052;-68
2020/12/11 12:13:08;;;;;;;31.23;15.18;;;;;;;2.68;85.79;98482.50;10488993;28;20073;-68
2020/12/11 12:18:12;;;;;;;29.70;15.18;;;;;;;2.70;83.94;98459.97;10465797;28;20045;-68
2020/12/11 12:24:00;;;;;;;33.80;15.68;;;;;;;2.65;86.34;98467.13;10485214;28;20462;-68
2020/12/11 12:39:13;;;;;;;28.42;15.05;;;;;;;2.65;87.42;98443.91;10477014;28;20045;-68
2020/12/11 12:44:14;;;;;;;29.00;15.52;;;;;;;2.69;87.07;98448.00;10489095;28;20045;-67
2020/12/11 12:49:15;;;;;;;24.75;14.13;;;;;;;2.71;86.43;98434.06;10478534;28;20416;-67
2020/12/11 12:54:15;;;;;;;26.48;13.70;;;;;;;2.70;88.47;98421.25;10482565;28;20102;-69
2020/12/11 13:09:41;;;;;;;28.67;15.43;;;;;;;2.62;90.26;98428.56;10485688;28;20063;-69
2020/12/11 13:14:42;;;;;;;24.35;14.15;;;;;;;2.77;88.70;98427.75;10483830;28;20059;-67
2020/12/11 13:19:44;;;;;;;28.38;15.05;;;;;;;2.70;88.09;98432.41;10479648;28;20075;-67
2020/12/11 13:30:05;;;;;;;27.23;14.07;;;;;;;2.70;89.36;98447.06;10495571;28;20385;-68
2020/12/11 13:35:07;;;;;;;31.30;15.95;;;;;;;2.79;89.68;98436.25;10474035;28;20060;-67
2020/12/11 13:40:09;;;;;;;26.48;14.00;;;;;;;2.58;89.97;98426.16;10491179;28;20401;-68
2020/12/11 13:45:10;;;;;;;28.65;15.38;;;;;;;2.47;91.40;98407.81;10478965;28;20052;-69
2020/12/11 13:50:11;;;;;;;27.30;14.70;;;;;;;2.54;90.53;98405.72;10486068;28;20044;-68
2020/12/11 13:55:12;;;;;;;24.88;14.68;;;;;;;2.36;92.88;98399.81;10477935;28;20048;-68
2020/12/11 14:00:13;;;;;;;26.95;15.27;;;;;;;2.39;92.50;98398.81;10488614;28;20063;-69
2020/12/11 14:05:14;;;;;;;28.52;14.68;;;;;;;2.39;94.07;98397.06;10481079;28;20059;-69
2020/12/11 14:10:15;;;;;;;28.13;15.05;;;;;;;2.44;93.12;98387.31;10484946;28;20076;-69
2020/12/11 14:15:16;;;;;;;29.92;15.95;;;;;;;2.37;94.22;98377.41;10479076;28;20130;-68
2020/12/11 14:25:29;;;;;;;26.95;15.73;;;;;;;2.47;92.84;98366.53;10487009;28;20049;-70
2020/12/11 14:30:31;;;;;;;27.67;14.93;;;;;;;2.37;92.98;98360.19;10485886;28;20052;-68
2020/12/11 14:35:33;;;;;;;34.40;19.42;;;;;;;2.43;91.96;98352.13;10475725;28;20074;-70
2020/12/11 14:40:34;;;;;;;27.27;15.48;;;;;;;2.42;94.37;98365.94;10484329;28;20129;-69
2020/12/11 14:45:35;;;;;;;34.60;20.02;;;;;;;2.44;96.11;98361.50;10475336;28;20052;-69
2020/12/11 14:50:39;;;;;;;37.22;20.80;;;;;;;2.47;97.09;98366.53;10487476;28;20119;-68
2020/12/11 14:55:41;;;;;;;37.25;20.48;;;;;;;2.47;97.98;98366.53;10485269;28;20052;-68
2020/12/11 15:00:45;;;;;;;30.00;16.80;;;;;;;2.44;96.88;98364.09;10487046;28;20140;-69
2020/12/11 15:05:47;;;;;;;30.90;17.88;;;;;;;2.45;97.16;98368.34;10478422;28;20056;-71
2020/12/11 15:10:48;;;;;;;33.92;18.23;;;;;;;2.41;96.59;98359.09;10483533;28;20044;-68
2020/12/11 15:15:50;;;;;;;34.72;19.85;;;;;;;2.47;97.22;98358.78;10479618;28;20052;-68
2020/12/11 15:20:53;;;;;;;31.73;18.00;;;;;;;2.53;95.92;98358.44;10488252;28;20102;-69
2020/12/11 15:25:54;;;;;;;29.50;17.45;;;;;;;2.45;95.75;98347.69;10484770;28;20079;-69
2020/12/11 15:30:54;;;;;;;29.85;16.08;;;;;;;2.45;96.38;98341.69;10486123;28;20044;-68
2020/12/11 15:35:55;;;;;;;28.45;17.48;;;;;;;2.48;96.00;98344.13;10472621;28;20144;-68
2020/12/11 15:40:56;;;;;;;34.25;17.88;;;;;;;2.46;96.23;98333.88;10477608;28;20052;-69
2020/12/11 15:45:58;;;;;;;35.25;19.83;;;;;;;2.45;96.74;98327.03;10472591;28;20488;-69
2020/12/11 15:50:59;;;;;;;41.78;23.88;;;;;;;2.41;97.92;98328.13;10483695;28;20425;-70
2020/12/11 15:56:00;;;;;;;32.53;19.17;;;;;;;2.39;97.94;98322.19;10483870;28;20114;-69
2020/12/11 16:01:01;;;;;;;36.28;19.83;;;;;;;2.46;97.23;98320.97;10488817;28;20045;-69
2020/12/11 16:06:02;;;;;;;40.47;21.83;;;;;;;2.43;97.57;98304.81;10490968;28;20523;-69
2020/12/11 16:11:03;;;;;;;35.83;21.08;;;;;;;2.39;98.39;98311.88;10489873;28;20041;-69
2020/12/11 16:16:07;;;;;;;34.63;19.67;;;;;;;2.37;99.59;98300.81;10498766;28;20450;-69
2020/12/11 16:21:09;;;;;;;30.80;16.65;;;;;;;2.39;98.84;98303.28;10480708;28;20041;-68
2020/12/11 16:26:11;;;;;;;37.35;19.08;;;;;;;2.38;98.67;98294.75;10486692;28;20052;-68
2020/12/11 16:31:23;;;;;;;36.47;18.48;;;;;;;2.45;99.84;98290.88;10487971;28;20048;-69
2020/12/11 16:36:37;;;;;;;29.30;17.63;;;;;;;2.45;99.42;98292.63;10489852;28;20098;-68
2020/12/11 16:41:40;;;;;;;35.20;19.15;;;;;;;2.42;99.50;98291.06;10496364;28;20051;-69
2020/12/11 16:46:48;;;;;;;31.35;17.02;;;;;;;2.42;99.59;98285.91;10498276;28;20080;-69
2020/12/11 16:51:49;;;;;;;36.17;20.85;;;;;;;2.49;100.00;98284.63;10483946;28;20571;-70
2020/12/11 16:56:50;;;;;;;40.08;21.38;;;;;;;2.50;100.00;98283.72;10486383;28;20064;-70
2020/12/11 17:01:54;;;;;;;33.53;18.73;;;;;;;2.53;100.00;98278.41;10489759;28;20510;-69
2020/12/11 17:07:01;;;;;;;30.60;18.15;;;;;;;2.48;100.00;98285.56;10486801;28;20052;-69
2020/12/11 17:12:01;;;;;;;38.55;20.60;;;;;;;2.52;100.00;98287.06;10469303;28;20048;-69
2020/12/11 17:17:06;;;;;;;42.28;20.13;;;;;;;2.48;100.00;98290.75;10487305;28;20078;-69
2020/12/11 17:22:08;;;;;;;43.67;21.90;;;;;;;2.51;100.00;98294.88;10477826;28;20053;-69
2020/12/11 17:27:09;;;;;;;34.75;20.15;;;;;;;2.52;100.00;98292.22;10492427;28;20060;-69
2020/12/11 17:37:30;;;;;;;34.25;19.15;;;;;;;2.50;100.00;98278.56;10494511;28;20105;-69
2020/12/11 17:42:31;;;;;;;33.33;19.27;;;;;;;2.53;100.00;98282.72;10481289;28;20045;-68
2020/12/11 17:47:32;;;;;;;32.13;17.58;;;;;;;2.48;100.00;98285.56;10486983;28;20044;-69
2020/12/11 17:52:34;;;;;;;34.55;20.17;;;;;;;2.47;100.00;98278.75;10481978;28;20738;-70
2020/12/11 17:57:35;;;;;;;33.15;19.02;;;;;;;2.46;100.00;98284.81;10490609;28;20106;-69
2020/12/11 18:02:36;;;;;;;33.95;18.77;;;;;;;2.62;100.00;98281.38;10476213;28;20123;-69
2020/12/11 18:07:37;;;;;;;31.95;18.45;;;;;;;2.52;100.00;98279.31;10484784;28;20139;-69
2020/12/11 18:12:38;;;;;;;41.95;21.02;;;;;;;2.48;100.00;98264.91;10480430;28;20041;-70
2020/12/11 18:17:38;;;;;;;36.75;20.52;;;;;;;2.46;100.00;98271.06;10477337;28;20507;-70
2020/12/11 18:22:43;;;;;;;35.67;21.50;;;;;;;2.44;100.00;98263.41;10481518;28;20083;-69
2020/12/11 18:27:47;;;;;;;38.17;20.85;;;;;;;2.47;100.00;98267.56;10490592;28;20447;-70
2020/12/11 18:32:48;;;;;;;31.95;18.60;;;;;;;2.48;100.00;98259.75;10483731;28;20110;-69
2020/12/11 18:37:50;;;;;;;34.45;18.35;;;;;;;2.52;100.00;98265.56;10489432;28;20076;-69
2020/12/11 18:42:51;;;;;;;35.05;18.70;;;;;;;2.52;100.00;98271.56;10480873;28;20106;-69
2020/12/11 18:47:57;;;;;;;32.30;17.55;;;;;;;2.53;100.00;98272.41;10489015;28;20045;-70
2020/12/11 18:52:58;;;;;;;32.70;19.02;;;;;;;2.50;100.00;98273.41;10486397;28;20384;-69
2020/12/11 18:57:59;;;;;;;31.05;17.80;;;;;;;2.56;100.00;98267.91;10487916;28;20045;-70
2020/12/11 19:02:59;;;;;;;34.08;19.55;;;;;;;2.65;100.00;98268.28;10486541;28;20052;-69
2020/12/11 19:08:01;;;;;;;31.23;18.10;;;;;;;2.63;100.00;98275.31;10483880;28;20053;-70
2020/12/11 19:13:02;;;;;;;37.80;20.15;;;;;;;2.65;100.00;98270.88;10484592;28;20041;-69
2020/12/11 19:18:03;;;;;;;32.10;18.55;;;;;;;2.62;100.00;98276.22;10466458;28;20397;-70
2020/12/11 19:23:06;;;;;;;34.83;18.95;;;;;;;2.63;100.00;98267.56;10492056;28;20098;-71
2020/12/11 19:28:06;;;;;;;36.53;19.35;;;;;;;2.60;100.00;98268.53;10491072;28;20498;-72
2020/12/11 19:33:07;;;;;;;32.65;18.48;;;;;;;2.65;100.00;98265.69;10478817;28;20049;-72
2020/12/11 19:38:09;;;;;;;33.83;18.90;;;;;;;2.59;100.00;98262.53;10491104;28;20412;-71
2020/12/11 19:43:11;;;;;;;39.40;23.38;;;;;;;2.58;100.00;98260.91;10468559;28;20037;-71
2020/12/11 19:48:12;;;;;;;43.47;25.30;;;;;;;2.68;100.00;98266.38;10490893;28;20048;-71
2020/12/11 19:53:14;;;;;;;43.28;24.67;;;;;;;2.61;100.00;98261.63;10481964;28;20048;-70
2020/12/11 19:58:15;;;;;;;44.05;24.33;;;;;;;2.60;100.00;98255.63;10496666;28;20113;-70
2020/12/11 20:03:15;;;;;;;41.78;24.58;;;;;;;2.56;100.00;98252.41;10497668;28;20051;-70
2020/12/11 20:13:36;;;;;;;44.70;25.30;;;;;;;2.54;100.00;98253.38;10495116;28;20041;-71
2020/12/11 20:18:37;;;;;;;42.75;23.17;;;;;;;2.55;100.00;98245.56;10497730;28;20434;-70
2020/12/11 20:23:38;;;;;;;41.22;23.20;;;;;;;2.62;100.00;98256.41;10476820;28;20055;-70
2020/12/11 20:28:39;;;;;;;42.65;23.17;;;;;;;2.71;100.00;98245.53;10498465;28;20057;-69
2020/12/11 20:33:40;;;;;;;46.90;24.13;;;;;;;2.73;100.00;98248.03;10483222;28;20055;-71
2020/12/11 20:38:41;;;;;;;46.72;25.98;;;;;;;2.77;100.00;98241.78;10497438;28;20462;-71
2020/12/11 20:43:41;;;;;;;45.75;25.38;;;;;;;2.75;100.00;98243.59;10483690;28;20055;-71
2020/12/11 20:48:43;;;;;;;44.38;24.17;;;;;;;2.74;100.00;98239.38;10462765;28;20131;-72
2020/12/11 20:53:43;;;;;;;48.53;25.90;;;;;;;2.72;100.00;98242.03;10483506;28;20390;-72
2020/12/11 20:58:44;;;;;;;45.90;25.30;;;;;;;2.75;100.00;98231.53;10495880;28;20048;-71
2020/12/11 21:03:46;;;;;;;42.65;23.73;;;;;;;2.73;100.00;98232.53;10479399;28;20045;-72
2020/12/11 21:08:51;;;;;;;45.25;23.80;;;;;;;2.76;100.00;98234.94;10482668;28;20053;-72
2020/12/11 21:13:52;;;;;;;44.05;25.02;;;;;;;2.76;100.00;98232.34;10496490;28;20044;-73
2020/12/11 21:18:53;;;;;;;48.53;25.65;;;;;;;2.82;100.00;98227.69;10487686;28;20055;-72
2020/12/11 21:23:54;;;;;;;51.38;27.98;;;;;;;2.89;100.00;98223.00;10488384;28;20499;-72
2020/12/11 21:28:55;;;;;;;47.78;28.63;;;;;;;2.89;100.00;98221.25;10493990;28;20416;-73
2020/12/11 21:39:16;;;;;;;59.83;33.55;;;;;;;3.01;100.00;98212.75;10478816;28;20097;-72
2020/12/11 21:44:19;;;;;;;51.33;28.33;;;;;;;2.94;100.00;98214.06;10487177;28;20090;-71
2020/12/11 21:49:21;;;;;;;53.92;29.90;;;;;;;2.96;100.00;98224.28;10486222;28;20098;-72
2020/12/11 21:54:22;;;;;;;54.90;30.70;;;;;;;2.98;100.00;98218.13;10483430;28;20056;-70
2020/12/11 21:59:23;;;;;;;49.90;29.27;;;;;;;2.93;100.00;98214.13;10486383;28;20554;-70
2020/12/11 22:04:24;;;;;;;54.60;31.90;;;;;;;2.98;100.00;98218.13;10483017;28;20051;-70
2020/12/11 22:09:24;;;;;;;45.67;26.25;;;;;;;2.89;100.00;98217.84;10485185;28;20098;-70
2020/12/11 22:14:26;;;;;;;41.17;25.05;;;;;;;2.92;100.00;98215.88;10490115;28;20370;-70
2020/12/11 22:19:26;;;;;;;47.00;26.35;;;;;;;2.87;100.00;98202.41;10484831;28;20048;-70
2020/12/11 22:24:56;;;;;;;48.65;26.48;;;;;;;2.87;100.00;98202.41;10486963;28;20063;-70
2020/12/11 22:29:51;;;;;;;49.70;26.88;;;;;;;2.88;100.00;98204.06;10485264;28;20053;-70
2020/12/11 22:34:52;;;;;;;48.58;25.55;;;;;;;2.90;100.00;98211.72;10475688;28;20497;-70
2020/12/11 22:39:59;;;;;;;50.30;28.05;;;;;;;2.96;100.00;98206.19;10487038;28;20044;-71
2020/12/11 22:45:00;;;;;;;44.87;26.53;;;;;;;2.93;100.00;98202.06;10483826;28;20098;-70
2020/12/11 22:50:02;;;;;;;47.10;26.25;;;;;;;3.00;100.00;98200.75;10492230;28;20105;-70
2020/12/11 22:55:03;;;;;;;41.75;24.25;;;;;;;2.99;100.00;98203.44;10492468;28;20102;-70
2020/12/11 23:00:05;;;;;;;55.28;30.77;;;;;;;2.98;100.00;98196.63;10492156;28;20052;-71
2020/12/11 23:05:06;;;;;;;63.75;35.25;;;;;;;3.01;100.00;98206.75;10492815;28;20052;-71
2020/12/11 23:10:10;;;;;;;53.75;28.88;;;;;;;2.94;100.00;98195.13;10487341;28;20066;-70
2020/12/11 23:15:11;;;;;;;50.22;26.75;;;;;;;2.89;100.00;98194.56;10501078;28;20056;-72
2020/12/11 23:20:18;;;;;;;46.00;24.88;;;;;;;2.88;100.00;98198.06;10500788;28;20489;-70
2020/12/11 23:25:19;;;;;;;41.03;23.73;;;;;;;2.91;100.00;98188.38;10500784;28;20117;-71
2020/12/11 23:30:20;;;;;;;40.03;23.75;;;;;;;3.01;100.00;98180.91;10499285;28;20136;-71
2020/12/11 23:35:21;;;;;;;39.28;22.35;;;;;;;2.96;100.00;98188.09;10500037;28;20052;-71
2020/12/11 23:40:22;;;;;;;42.03;22.85;;;;;;;3.00;100.00;98192.16;10499418;28;20084;-71
2020/12/11 23:45:23;;;;;;;37.22;21.27;;;;;;;3.03;100.00;98189.44;10500080;28;20048;-71
2020/12/11 23:50:27;;;;;;;35.72;20.90;;;;;;;3.00;100.00;98192.16;10499292;28;20048;-71
2020/12/11 23:55:28;;;;;;;34.03;20.55;;;;;;;3.01;100.00;98192.09;10499724;28;20048;-71
